Time;durP1;ratioP1;P1;durP2;ratioP2;P2;SDS_P1;SDS_P2;PMS_P1;PMS_P2;Temp;Humidity;BMP_temperature;BMP_pressure;BME280_temperature;BME280_humidity;BME280_pressure;Samples;Min_cycle;Max_cycle;Signal;HPM_P1;HPM_P2
2023/06/03 00:01:14;;;;;;;4.20;2.30;;;;;;;14.60;73.51;102132.78;4977203;28;20042;-78
2023/06/03 00:03:39;;;;;;;3.55;2.13;;;;;;;14.50;72.83;102127.75;4959730;28;20034;-79
2023/06/03 00:06:05;;;;;;;3.00;2.17;;;;;;;14.59;73.04;102134.00;4977653;28;20495;-79
2023/06/03 00:08:31;;;;;;;4.60;1.95;;;;;;;14.68;72.02;102133.75;4987046;28;20030;-79
2023/06/03 00:10:56;;;;;;;4.78;2.03;;;;;;;14.52;72.87;102131.00;4978336;28;20045;-79
2023/06/03 00:13:22;;;;;;;4.32;1.92;;;;;;;14.55;72.65;102141.53;4980072;28;20073;-79
2023/06/03 00:15:48;;;;;;;3.15;1.90;;;;;;;14.48;72.36;102149.84;4972270;28;20680;-78
2023/06/03 00:18:15;;;;;;;2.80;1.80;;;;;;;14.42;71.08;102150.16;4975561;28;20030;-79
2023/06/03 00:20:40;;;;;;;2.03;1.60;;;;;;;14.35;71.39;102147.19;4974225;28;20535;-78
2023/06/03 00:23:06;;;;;;;1.88;1.65;;;;;;;14.35;69.87;102152.81;4982807;28;20112;-79
2023/06/03 00:25:32;;;;;;;5.10;2.50;;;;;;;14.49;70.94;102159.94;4980187;28;20129;-78
2023/06/03 00:27:58;;;;;;;1.92;1.50;;;;;;;14.41;70.18;102159.78;4978968;28;20040;-78
2023/06/03 00:30:23;;;;;;;4.22;1.83;;;;;;;14.50;69.59;102167.19;4983397;28;20173;-78
2023/06/03 00:32:48;;;;;;;2.70;1.63;;;;;;;14.41;69.78;102171.06;4981206;28;20026;-78
2023/06/03 00:35:14;;;;;;;1.83;1.60;;;;;;;14.33;69.34;102166.47;4977214;28;20466;-78
2023/06/03 00:37:39;;;;;;;2.63;2.10;;;;;;;14.38;68.89;102165.38;4986486;28;20026;-78
2023/06/03 00:40:06;;;;;;;2.42;1.83;;;;;;;14.27;69.03;102158.69;4983692;28;20042;-78
2023/06/03 00:42:31;;;;;;;3.00;1.75;;;;;;;14.13;69.29;102154.41;4980284;28;20072;-80
2023/06/03 00:44:57;;;;;;;4.90;1.83;;;;;;;14.20;68.60;102153.75;4992739;28;20030;-79
2023/06/03 00:47:22;;;;;;;2.17;1.33;;;;;;;14.11;67.85;102148.34;4966144;28;20096;-79
2023/06/03 00:49:48;;;;;;;3.80;1.85;;;;;;;14.22;69.52;102157.81;4975491;28;20023;-79
2023/06/03 00:52:15;;;;;;;2.90;1.63;;;;;;;14.20;69.17;102153.75;4995224;28;20139;-79
2023/06/03 00:54:40;;;;;;;2.67;1.70;;;;;;;14.07;69.08;102150.28;4984224;28;20045;-80
2023/06/03 00:57:06;;;;;;;4.22;1.92;;;;;;;13.99;68.04;102149.31;4973041;28;20046;-80
2023/06/03 00:59:32;;;;;;;3.38;2.05;;;;;;;13.99;69.31;102146.47;4993223;28;20104;-79
2023/06/03 01:01:58;;;;;;;4.88;1.60;;;;;;;13.96;67.88;102143.63;4981362;28;20034;-79
2023/06/03 01:04:25;;;;;;;3.10;1.70;;;;;;;13.91;68.92;102149.53;4983683;28;20034;-79
2023/06/03 01:07:04;;;;;;;4.45;1.60;;;;;;;13.91;67.95;102144.69;4975085;28;20093;-80
2023/06/03 01:09:35;;;;;;;2.75;1.48;;;;;;;13.86;68.49;102150.63;4977996;28;20048;-79
2023/06/03 01:12:27;;;;;;;2.85;1.70;;;;;;;13.89;68.43;102147.06;4994296;28;20045;-79
2023/06/03 01:15:08;;;;;;;3.75;1.50;;;;;;;13.72;67.14;102131.44;4980546;28;20042;-79
2023/06/03 01:17:39;;;;;;;3.80;1.45;;;;;;;13.82;68.27;102141.31;4973891;28;20923;-79
2023/06/03 01:20:10;;;;;;;2.10;1.20;;;;;;;13.83;68.24;102145.75;4992336;28;20100;-79
2023/06/03 01:22:41;;;;;;;4.30;1.38;;;;;;;13.81;68.57;102142.50;4975109;28;20827;-78
2023/06/03 01:25:09;;;;;;;3.67;1.30;;;;;;;13.84;67.75;102147.38;4978645;28;20045;-79
2023/06/03 01:27:38;;;;;;;2.25;1.50;;;;;;;13.62;68.08;102154.56;4976006;28;20030;-78
2023/06/03 01:30:14;;;;;;;6.03;2.03;;;;;;;13.63;67.40;102142.91;4975289;28;20081;-78
2023/06/03 01:32:46;;;;;;;2.35;1.35;;;;;;;13.69;68.28;102146.25;4975740;28;20093;-78
2023/06/03 01:35:13;;;;;;;2.10;1.42;;;;;;;13.63;67.29;102151.34;4974450;28;20043;-78
2023/06/03 01:37:40;;;;;;;3.38;1.48;;;;;;;13.54;67.94;102156.38;4976028;28;20049;-78
2023/06/03 01:40:07;;;;;;;1.85;1.30;;;;;;;13.48;68.02;102157.03;4981379;28;20077;-80
2023/06/03 01:42:33;;;;;;;5.15;1.60;;;;;;;13.53;67.79;102154.75;4975850;28;20041;-79
2023/06/03 01:44:59;;;;;;;2.88;1.50;;;;;;;13.63;68.01;102159.78;4980865;28;20042;-79
2023/06/03 01:47:24;;;;;;;3.08;1.45;;;;;;;13.50;67.51;102161.09;4976418;28;20041;-79
2023/06/03 01:49:50;;;;;;;2.72;1.25;;;;;;;13.52;67.11;102163.56;4974280;28;20030;-78
2023/06/03 01:52:16;;;;;;;4.72;1.75;;;;;;;13.48;66.66;102163.47;4977710;28;20085;-78
2023/06/03 01:54:41;;;;;;;3.13;1.75;;;;;;;13.38;66.06;102162.03;4991990;28;20071;-79
2023/06/03 01:57:07;;;;;;;2.03;1.20;;;;;;;13.38;67.05;102164.84;4977860;28;20033;-79
2023/06/03 01:59:33;;;;;;;2.25;1.10;;;;;;;13.22;66.52;102155.63;4978426;28;20125;-79
2023/06/03 02:01:59;;;;;;;1.60;1.15;;;;;;;13.35;67.84;102171.22;4984177;28;20109;-79
2023/06/03 02:04:26;;;;;;;1.85;1.40;;;;;;;13.27;66.38;102157.31;4977615;28;20169;-78
2023/06/03 02:06:52;;;;;;;2.20;1.40;;;;;;;13.26;67.60;102164.13;4979361;28;20539;-79
2023/06/03 02:09:20;;;;;;;2.78;1.27;;;;;;;13.18;67.57;102155.53;4974309;28;20084;-79
2023/06/03 02:11:47;;;;;;;1.65;1.42;;;;;;;13.19;67.04;102153.50;4983156;28;20117;-79
2023/06/03 02:14:12;;;;;;;2.83;1.38;;;;;;;13.11;66.60;102149.75;4978946;28;20049;-79
2023/06/03 02:16:40;;;;;;;3.28;1.90;;;;;;;13.02;66.93;102141.47;4976082;28;20039;-79
2023/06/03 02:19:12;;;;;;;1.45;1.13;;;;;;;13.12;68.00;102148.53;4979339;28;20026;-79
2023/06/03 02:21:39;;;;;;;2.60;1.40;;;;;;;13.18;66.88;102152.72;4975894;28;20074;-79
2023/06/03 02:24:05;;;;;;;1.38;1.00;;;;;;;13.00;67.08;102148.63;4976690;28;20491;-79
2023/06/03 02:26:31;;;;;;;2.70;1.40;;;;;;;12.96;66.95;102154.16;4981427;28;20474;-78
2023/06/03 02:28:57;;;;;;;2.05;1.80;;;;;;;13.10;66.76;102153.72;4981705;28;20041;-79
2023/06/03 02:31:22;;;;;;;2.78;1.38;;;;;;;13.02;67.11;102158.34;4982666;28;20461;-79
2023/06/03 02:33:48;;;;;;;3.10;1.30;;;;;;;13.02;65.84;102152.72;4985785;28;20481;-79
2023/06/03 02:36:14;;;;;;;1.95;1.20;;;;;;;12.93;66.64;102154.09;4976390;28;20023;-79
2023/06/03 02:38:40;;;;;;;1.90;1.30;;;;;;;12.94;66.12;102156.53;4976875;28;20030;-78
2023/06/03 02:41:06;;;;;;;4.75;1.48;;;;;;;12.85;66.40;102150.28;4974435;28;20049;-79
2023/06/03 02:43:31;;;;;;;3.40;1.38;;;;;;;12.81;66.22;102153.00;4975417;28;20479;-79
2023/06/03 02:45:57;;;;;;;2.40;1.38;;;;;;;12.86;66.01;102154.75;4979480;28;20030;-78
2023/06/03 02:48:22;;;;;;;1.25;1.00;;;;;;;12.94;66.25;102161.34;4988184;28;20541;-79
2023/06/03 02:50:47;;;;;;;3.20;1.48;;;;;;;12.73;66.78;102155.97;4978707;28;20752;-78
2023/06/03 02:53:13;;;;;;;1.75;1.40;;;;;;;12.80;66.85;102148.56;4977301;28;20030;-78
2023/06/03 02:55:38;;;;;;;1.70;1.35;;;;;;;12.67;66.40;102155.44;4977972;28;20030;-78
2023/06/03 02:58:04;;;;;;;2.40;1.20;;;;;;;12.64;67.11;102155.34;4975338;28;20022;-78
2023/06/03 03:00:30;;;;;;;2.47;1.63;;;;;;;12.63;66.46;102157.34;4973011;28;20058;-78
2023/06/03 03:02:55;;;;;;;3.35;1.77;;;;;;;12.53;67.12;102160.69;4978757;28;20038;-78
2023/06/03 03:05:23;;;;;;;3.10;1.90;;;;;;;12.57;66.46;102165.22;4974902;28;20035;-78
2023/06/03 03:07:49;;;;;;;2.03;1.50;;;;;;;12.54;66.64;102165.13;4982034;28;20407;-78
2023/06/03 03:10:15;;;;;;;1.13;0.90;;;;;;;12.51;66.08;102160.22;4977264;28;20018;-78
2023/06/03 03:12:41;;;;;;;3.03;1.92;;;;;;;12.52;66.47;102161.84;4972940;28;20453;-78
2023/06/03 03:15:07;;;;;;;1.80;1.20;;;;;;;12.45;67.42;102158.84;4985936;28;20037;-78
2023/06/03 03:17:32;;;;;;;2.75;1.42;;;;;;;12.38;67.35;102163.09;4978603;28;20038;-78
2023/06/03 03:19:58;;;;;;;2.35;1.50;;;;;;;12.46;67.06;102160.47;4981943;28;20589;-78
2023/06/03 03:22:23;;;;;;;3.33;1.27;;;;;;;12.50;66.66;102165.03;4978492;28;20172;-78
2023/06/03 03:24:50;;;;;;;2.80;1.70;;;;;;;12.34;66.30;102169.81;4975872;28;20035;-78
2023/06/03 03:27:16;;;;;;;2.72;1.63;;;;;;;12.28;67.75;102171.22;4993321;28;20034;-78
2023/06/03 03:29:44;;;;;;;2.45;1.65;;;;;;;12.43;66.53;102164.03;4974739;28;20038;-78
2023/06/03 03:32:11;;;;;;;1.50;1.20;;;;;;;12.25;66.06;102171.94;4981537;28;20034;-78
2023/06/03 03:34:38;;;;;;;2.47;1.30;;;;;;;12.34;67.17;102179.03;4978473;28;20200;-78
2023/06/03 03:37:04;;;;;;;2.47;1.30;;;;;;;12.29;66.51;102175.66;4981749;28;20042;-78
2023/06/03 03:39:30;;;;;;;2.50;1.30;;;;;;;12.20;67.10;102173.00;4980531;28;20070;-78
2023/06/03 03:41:55;;;;;;;2.25;1.38;;;;;;;12.13;67.43;102175.63;4985355;28;20474;-78
2023/06/03 03:44:26;;;;;;;2.42;1.80;;;;;;;12.14;66.84;102180.06;4990160;28;20395;-78
2023/06/03 03:47:03;;;;;;;2.17;1.50;;;;;;;12.14;67.25;102164.06;4982995;28;20026;-78
2023/06/03 03:49:31;;;;;;;2.78;1.40;;;;;;;12.25;67.15;102181.19;4976897;28;20038;-78
2023/06/03 03:52:01;;;;;;;3.35;1.30;;;;;;;12.25;67.46;102175.56;4987074;28;20553;-80
2023/06/03 03:54:26;;;;;;;3.17;1.70;;;;;;;12.09;67.07;102178.31;4978963;28;20064;-79
2023/06/03 03:56:55;;;;;;;2.95;1.35;;;;;;;12.19;67.40;102165.78;4982205;28;20871;-79
2023/06/03 03:59:20;;;;;;;4.32;1.42;;;;;;;12.15;68.33;102170.47;4981668;28;20487;-79
2023/06/03 04:01:46;;;;;;;4.43;1.77;;;;;;;12.15;67.15;102171.28;4983013;28;20037;-79
2023/06/03 04:04:35;;;;;;;2.17;1.60;;;;;;;12.19;66.73;102165.78;4977486;28;20030;-79
2023/06/03 04:07:01;;;;;;;1.88;1.52;;;;;;;12.18;67.39;102164.13;4980778;28;20482;-78
2023/06/03 04:09:26;;;;;;;2.05;1.27;;;;;;;12.29;66.93;102175.66;4985060;28;20066;-79
2023/06/03 04:11:52;;;;;;;3.33;1.55;;;;;;;12.07;67.09;102163.03;4985941;28;20105;-79
2023/06/03 04:14:25;;;;;;;2.20;1.40;;;;;;;12.08;67.75;102170.25;4964569;28;20120;-79
2023/06/03 04:16:56;;;;;;;5.38;1.45;;;;;;;12.03;67.38;102174.13;4961350;28;20387;-79
2023/06/03 04:19:36;;;;;;;3.97;1.55;;;;;;;12.05;67.94;102170.97;4984188;28;20022;-80
2023/06/03 04:22:04;;;;;;;1.98;1.40;;;;;;;12.07;67.36;102175.06;4978207;28;20074;-79
2023/06/03 04:24:30;;;;;;;2.05;1.30;;;;;;;12.04;67.59;102169.31;4979197;28;20391;-79
2023/06/03 04:26:56;;;;;;;2.30;1.55;;;;;;;11.96;67.53;102179.53;4980233;28;20018;-79
2023/06/03 04:29:22;;;;;;;1.65;1.15;;;;;;;11.98;66.81;102166.78;4984440;28;20034;-79
2023/06/03 04:31:47;;;;;;;1.77;1.13;;;;;;;12.04;67.22;102174.94;4979627;28;20037;-79
2023/06/03 04:34:13;;;;;;;3.30;2.05;;;;;;;11.87;68.50;102176.84;4975781;28;20042;-79
2023/06/03 04:36:38;;;;;;;2.47;1.38;;;;;;;12.00;67.76;102170.06;4979949;28;20561;-79
2023/06/03 04:39:08;;;;;;;2.63;1.50;;;;;;;12.00;67.61;102180.47;4982143;28;20061;-80
2023/06/03 04:41:37;;;;;;;2.80;1.92;;;;;;;12.07;67.57;102182.66;4980247;28;20069;-79
2023/06/03 04:44:05;;;;;;;1.63;1.33;;;;;;;12.11;67.59;102180.78;4982699;28;20018;-79
2023/06/03 04:46:31;;;;;;;3.08;1.33;;;;;;;11.96;67.93;102176.75;4981649;28;20038;-79
2023/06/03 04:49:03;;;;;;;2.35;1.52;;;;;;;11.98;68.15;102178.00;4977555;28;20035;-78
2023/06/03 04:51:34;;;;;;;2.58;1.10;;;;;;;11.94;68.78;102176.28;4973186;28;20490;-80
2023/06/03 04:54:04;;;;;;;1.95;1.45;;;;;;;11.97;68.65;102181.16;4977719;28;20038;-78
2023/06/03 04:56:29;;;;;;;2.40;1.52;;;;;;;12.12;68.30;102177.63;4986084;28;20030;-78
2023/06/03 04:58:56;;;;;;;2.10;1.38;;;;;;;12.19;68.22;102177.00;4982769;28;20405;-79
2023/06/03 05:01:25;;;;;;;1.58;1.40;;;;;;;11.95;68.35;102175.09;4985834;28;21200;-78
2023/06/03 05:03:54;;;;;;;1.85;1.50;;;;;;;12.04;68.81;102180.56;4978429;28;20043;-78
2023/06/03 05:06:20;;;;;;;2.60;1.50;;;;;;;12.00;69.48;102189.69;4978173;28;20041;-78
2023/06/03 05:08:50;;;;;;;2.45;1.50;;;;;;;11.81;70.13;102183.88;4993178;28;20483;-78
2023/06/03 05:11:16;;;;;;;2.58;1.30;;;;;;;11.97;69.59;102182.00;4982152;28;20034;-78
2023/06/03 05:13:42;;;;;;;2.05;1.33;;;;;;;12.06;69.62;102189.44;4989882;28;20479;-78
2023/06/03 05:16:07;;;;;;;5.90;1.58;;;;;;;12.19;69.38;102188.22;4979329;28;20034;-78
2023/06/03 05:18:32;;;;;;;3.13;1.48;;;;;;;11.84;69.21;102177.56;4970698;28;20072;-78
2023/06/03 05:20:58;;;;;;;2.22;1.50;;;;;;;12.01;70.11;102190.50;4974286;28;20042;-78
2023/06/03 05:23:23;;;;;;;1.52;1.25;;;;;;;12.23;69.19;102194.78;4982773;28;20089;-78
2023/06/03 05:25:49;;;;;;;2.65;1.40;;;;;;;12.08;69.41;102192.69;4981405;28;20491;-79
2023/06/03 05:28:14;;;;;;;1.80;1.60;;;;;;;12.12;69.15;102194.47;4982355;28;20385;-78
2023/06/03 05:30:40;;;;;;;4.00;1.40;;;;;;;12.19;68.47;102200.28;4979892;28;20057;-78
2023/06/03 05:33:05;;;;;;;2.90;1.70;;;;;;;12.03;68.23;102192.97;4980525;28;20112;-78
2023/06/03 05:35:31;;;;;;;4.95;1.80;;;;;;;12.13;68.75;102198.06;4976975;28;20031;-78
2023/06/03 05:37:56;;;;;;;3.45;1.40;;;;;;;12.24;67.75;102201.19;4975365;28;20062;-78
2023/06/03 05:40:21;;;;;;;1.42;1.25;;;;;;;12.45;68.07;102200.97;4978679;28;20090;-79
2023/06/03 05:42:47;;;;;;;2.63;1.65;;;;;;;12.44;67.86;102200.16;4980537;28;20117;-78
2023/06/03 05:45:13;;;;;;;2.05;1.52;;;;;;;12.47;66.58;102201.44;4981506;28;20034;-78
2023/06/03 05:47:39;;;;;;;2.03;1.67;;;;;;;12.19;66.21;102205.06;4989292;28;20578;-78
2023/06/03 05:50:05;;;;;;;3.08;1.77;;;;;;;12.30;67.35;102206.19;4973435;28;20113;-78
2023/06/03 05:52:30;;;;;;;2.50;1.65;;;;;;;12.43;66.61;102211.75;4979347;28;20390;-78
2023/06/03 05:54:55;;;;;;;3.65;1.65;;;;;;;12.40;66.85;102207.69;4975475;28;20046;-78
2023/06/03 05:57:21;;;;;;;2.90;1.23;;;;;;;12.58;67.41;102202.53;4980799;28;20026;-79
2023/06/03 05:59:46;;;;;;;2.00;1.50;;;;;;;12.66;66.01;102204.38;4975551;28;20534;-78
2023/06/03 06:02:11;;;;;;;3.00;1.15;;;;;;;12.52;66.24;102207.63;4982562;28;20033;-79
2023/06/03 06:04:37;;;;;;;3.58;1.33;;;;;;;12.61;66.07;102199.03;4985083;28;20038;-79
2023/06/03 06:07:02;;;;;;;4.00;1.77;;;;;;;12.58;64.67;102197.72;4975973;28;20206;-78
2023/06/03 06:09:28;;;;;;;3.08;2.10;;;;;;;12.71;64.52;102208.91;4977631;28;20030;-79
2023/06/03 06:11:54;;;;;;;4.32;1.60;;;;;;;12.79;65.18;102205.91;4973760;28;20498;-79
2023/06/03 06:14:22;;;;;;;4.72;1.60;;;;;;;12.80;64.96;102210.38;4985284;28;20372;-79
2023/06/03 06:16:48;;;;;;;2.92;1.58;;;;;;;12.96;65.52;102203.94;4969951;28;20019;-79
2023/06/03 06:19:13;;;;;;;1.80;1.30;;;;;;;13.01;66.75;102206.50;4998902;28;20517;-80
2023/06/03 06:21:38;;;;;;;2.13;1.55;;;;;;;13.03;65.85;102218.19;4984876;28;20050;-79
2023/06/03 06:24:05;;;;;;;2.33;1.45;;;;;;;13.03;64.58;102212.56;4996897;28;20037;-79
2023/06/03 06:26:31;;;;;;;1.73;1.40;;;;;;;13.05;64.36;102221.47;4981889;28;20041;-79
2023/06/03 06:28:56;;;;;;;4.15;1.60;;;;;;;13.15;63.77;102215.28;4983959;28;20026;-79
2023/06/03 06:31:21;;;;;;;2.10;1.30;;;;;;;13.34;64.50;102213.75;4978813;28;20046;-79
2023/06/03 06:33:50;;;;;;;3.10;1.52;;;;;;;13.30;63.51;102213.69;4975346;28;20466;-78
2023/06/03 06:36:15;;;;;;;3.42;1.50;;;;;;;13.34;64.06;102219.38;4974118;28;20475;-78
2023/06/03 06:38:40;;;;;;;2.70;1.25;;;;;;;13.36;64.07;102214.22;4977423;28;20093;-78
2023/06/03 06:41:06;;;;;;;2.85;1.30;;;;;;;13.50;63.62;102223.00;4986226;28;20034;-79
2023/06/03 06:43:35;;;;;;;3.20;1.77;;;;;;;13.62;64.57;102211.63;4981478;28;20033;-78
2023/06/03 06:46:00;;;;;;;2.63;1.50;;;;;;;13.65;64.39;102220.53;4991210;28;20707;-79
2023/06/03 06:48:26;;;;;;;3.25;1.50;;;;;;;13.88;63.08;102227.09;4973314;28;20042;-79
2023/06/03 06:50:56;;;;;;;3.05;1.67;;;;;;;13.89;64.26;102211.81;4974144;28;20196;-78
2023/06/03 06:53:23;;;;;;;2.00;1.45;;;;;;;14.17;61.58;102222.09;4979298;28;20030;-78
2023/06/03 06:55:52;;;;;;;2.88;2.00;;;;;;;14.02;62.90;102218.16;4976020;28;20378;-79
2023/06/03 06:58:19;;;;;;;2.03;1.40;;;;;;;14.11;63.10;102212.28;4977909;28;20034;-78
2023/06/03 07:00:45;;;;;;;2.03;1.40;;;;;;;14.32;61.44;102212.72;4976858;28;20068;-78
2023/06/03 07:03:16;;;;;;;2.28;1.45;;;;;;;14.55;60.75;102210.00;4976613;28;20035;-78
2023/06/03 07:05:42;;;;;;;5.93;1.50;;;;;;;14.46;61.06;102217.81;4975131;28;20034;-79
2023/06/03 07:08:08;;;;;;;4.32;1.45;;;;;;;14.61;59.74;102216.16;4975904;28;20045;-78
2023/06/03 07:10:35;;;;;;;4.95;1.95;;;;;;;14.80;60.11;102216.09;4990063;28;20027;-78
2023/06/03 07:13:02;;;;;;;2.60;1.75;;;;;;;15.04;60.11;102231.03;4976371;28;20048;-76
2023/06/03 07:15:28;;;;;;;1.52;0.95;;;;;;;15.19;58.91;102223.63;4973560;28;20023;-75
2023/06/03 07:17:55;;;;;;;2.13;1.30;;;;;;;16.10;68.75;102223.78;4986606;28;20041;-79
2023/06/03 07:20:31;;;;;;;2.55;1.17;;;;;;;16.85;64.41;102225.50;4977138;28;20027;-83
2023/06/03 07:22:56;;;;;;;1.73;0.90;;;;;;;17.10;63.28;102233.41;4981175;28;20045;-82
2023/06/03 07:25:49;;;;;;;2.45;1.35;;;;;;;17.15;59.62;102233.03;5000618;28;20049;-85
2023/06/03 07:28:20;;;;;;;16.02;2.90;;;;;;;17.19;59.78;102236.72;4985047;28;20494;-84
2023/06/03 07:30:47;;;;;;;7.00;1.38;;;;;;;17.23;56.61;102239.59;4988233;28;20521;-83
2023/06/03 07:33:40;;;;;;;2.55;1.15;;;;;;;17.23;54.44;102233.94;4993508;28;20026;-84
2023/06/03 07:36:05;;;;;;;1.35;0.80;;;;;;;17.32;56.55;102237.22;4985448;28;20050;-83
2023/06/03 07:38:37;;;;;;;2.58;0.82;;;;;;;17.43;55.63;102238.16;4984924;28;20065;-84
2023/06/03 07:41:02;;;;;;;3.05;1.27;;;;;;;17.50;55.56;102228.88;4981552;28;20061;-83
2023/06/03 07:43:28;;;;;;;2.88;1.30;;;;;;;17.56;54.98;102235.81;4993211;28;20062;-83
2023/06/03 07:45:53;;;;;;;3.65;1.23;;;;;;;17.43;54.48;102228.81;4986658;28;20038;-84
2023/06/03 07:48:19;;;;;;;5.20;2.70;;;;;;;17.44;54.92;102222.78;4985586;28;20069;-84
2023/06/03 07:50:47;;;;;;;4.00;1.70;;;;;;;17.43;54.02;102231.66;4978321;28;20360;-84
2023/06/03 07:53:21;;;;;;;1.65;1.55;;;;;;;17.30;53.74;102225.50;4977806;28;20030;-84
2023/06/03 07:55:47;;;;;;;1.33;0.90;;;;;;;17.31;52.34;102223.47;4980904;28;20054;-84
2023/06/03 07:58:14;;;;;;;1.95;1.08;;;;;;;17.45;54.22;102223.59;4983703;28;20463;-83
2023/06/03 08:00:44;;;;;;;2.55;1.25;;;;;;;17.50;50.44;102228.06;4987016;28;20491;-83
2023/06/03 08:03:15;;;;;;;3.00;1.30;;;;;;;17.51;52.53;102233.34;4983570;28;20486;-83
2023/06/03 08:05:41;;;;;;;3.67;1.20;;;;;;;17.62;51.26;102228.56;4981523;28;20030;-83
2023/06/03 08:08:10;;;;;;;4.38;1.20;;;;;;;17.52;48.16;102228.47;4976255;28;20034;-81
2023/06/03 08:10:38;;;;;;;1.70;1.20;;;;;;;17.48;46.09;102228.47;4979764;28;20398;-81
2023/06/03 08:13:07;;;;;;;1.70;1.25;;;;;;;17.41;49.73;102236.88;4977766;28;20058;-81
2023/06/03 08:15:35;;;;;;;2.05;1.20;;;;;;;17.50;52.04;102223.22;4986238;28;20026;-82
2023/06/03 08:18:08;;;;;;;1.70;1.27;;;;;;;17.75;44.96;102237.56;4990243;28;20053;-82
2023/06/03 08:20:36;;;;;;;1.65;1.42;;;;;;;17.96;48.86;102241.75;4984502;28;20058;-81
2023/06/03 08:23:02;;;;;;;3.75;1.10;;;;;;;18.13;46.72;102243.03;4988640;28;20092;-81
2023/06/03 08:25:27;;;;;;;3.55;1.25;;;;;;;17.88;46.47;102240.91;4998579;28;20124;-81
2023/06/03 08:27:53;;;;;;;2.88;0.85;;;;;;;17.92;44.53;102230.41;4997843;28;20160;-81
2023/06/03 08:30:22;;;;;;;1.83;1.05;;;;;;;17.91;47.72;102234.44;4984437;28;24027;-82
2023/06/03 08:32:48;;;;;;;6.93;1.33;;;;;;;17.81;48.03;102235.16;4979641;28;20045;-81
2023/06/03 08:35:18;;;;;;;2.85;1.20;;;;;;;17.83;46.27;102241.25;4985170;28;20566;-82
2023/06/03 08:37:44;;;;;;;2.08;1.35;;;;;;;18.20;44.85;102229.72;5005526;28;20026;-84
2023/06/03 08:40:11;;;;;;;3.50;1.08;;;;;;;17.79;46.15;102226.22;5015004;28;20030;-83
2023/06/03 08:42:42;;;;;;;2.35;1.00;;;;;;;18.20;45.56;102234.59;4980952;28;20037;-83
2023/06/03 08:45:10;;;;;;;1.90;1.10;;;;;;;18.41;45.62;102240.34;5004916;28;20129;-83
2023/06/03 08:48:02;;;;;;;1.10;0.77;;;;;;;18.39;42.34;102239.94;4979035;28;20508;-83
2023/06/03 08:50:28;;;;;;;1.33;1.13;;;;;;;18.26;40.11;102238.66;4976642;28;20061;-84
2023/06/03 08:52:55;;;;;;;0.98;0.88;;;;;;;18.42;44.16;102233.44;4983416;28;20303;-83
2023/06/03 08:55:21;;;;;;;1.65;1.10;;;;;;;18.14;40.33;102219.19;4978446;28;20033;-83
2023/06/03 08:58:08;;;;;;;2.33;1.00;;;;;;;18.40;41.66;102227.34;4985226;28;20026;-83
2023/06/03 09:00:34;;;;;;;1.85;0.70;;;;;;;18.76;42.80;102233.13;4987570;28;20038;-83
2023/06/03 09:03:01;;;;;;;0.90;0.70;;;;;;;18.76;39.81;102232.31;4978238;28;20120;-83
2023/06/03 09:05:27;;;;;;;3.97;1.35;;;;;;;18.38;42.82;102226.16;4982718;28;20081;-83
2023/06/03 09:07:54;;;;;;;2.08;0.90;;;;;;;18.09;42.60;102223.22;4986969;28;20049;-82
2023/06/03 09:10:25;;;;;;;1.35;0.90;;;;;;;17.54;40.97;102224.06;4988463;28;20050;-82
2023/06/03 09:12:57;;;;;;;1.52;1.02;;;;;;;17.63;41.02;102218.88;4972678;28;20561;-81
2023/06/03 09:15:23;;;;;;;0.93;0.82;;;;;;;17.66;41.33;102223.72;4979082;28;20034;-82
2023/06/03 09:17:48;;;;;;;1.48;0.80;;;;;;;17.92;41.30;102221.06;4996270;28;20026;-82
2023/06/03 09:20:14;;;;;;;1.98;1.27;;;;;;;17.67;41.69;102225.38;4969703;28;20460;-82
2023/06/03 09:22:46;;;;;;;3.03;1.02;;;;;;;17.81;41.24;102224.63;4981517;28;20172;-82
2023/06/03 09:25:11;;;;;;;1.48;0.90;;;;;;;18.13;40.33;102221.22;4973448;28;20362;-82
2023/06/03 09:27:39;;;;;;;3.55;1.15;;;;;;;18.47;47.00;102221.72;4985505;28;20022;-83
2023/06/03 09:30:05;;;;;;;1.73;1.13;;;;;;;18.88;41.12;102220.63;4982556;28;20034;-84
2023/06/03 09:32:33;;;;;;;1.67;0.93;;;;;;;19.04;38.88;102217.41;4976794;28;20521;-84
2023/06/03 09:35:00;;;;;;;1.70;0.70;;;;;;;19.22;37.84;102220.25;4977461;28;20484;-86
2023/06/03 09:37:26;;;;;;;1.33;0.85;;;;;;;19.18;36.85;102217.41;4977845;28;20061;-82
2023/06/03 09:39:52;;;;;;;2.67;0.88;;;;;;;19.14;40.50;102221.47;4991150;28;20495;-82
2023/06/03 09:42:17;;;;;;;2.58;0.70;;;;;;;19.21;38.80;102213.75;4975888;28;20116;-82
2023/06/03 09:44:49;;;;;;;4.80;2.33;;;;;;;19.44;37.58;102212.53;4977406;28;20066;-82
2023/06/03 09:47:16;;;;;;;5.60;1.00;;;;;;;19.26;39.16;102209.72;4979165;28;20034;-84
2023/06/03 09:50:06;;;;;;;7.35;1.00;;;;;;;19.37;41.31;102215.38;4975987;28;20280;-83
2023/06/03 09:52:38;;;;;;;2.70;0.63;;;;;;;19.44;38.68;102215.38;4976457;28;20475;-83
2023/06/03 09:55:06;;;;;;;3.88;0.98;;;;;;;19.53;41.57;102212.94;4976109;28;20716;-83
2023/06/03 09:57:32;;;;;;;1.10;1.00;;;;;;;19.45;40.14;102217.00;4992305;28;20562;-84
2023/06/03 10:00:11;;;;;;;2.55;0.77;;;;;;;19.90;36.93;102208.81;4978201;28;20046;-84
2023/06/03 10:02:39;;;;;;;0.82;0.70;;;;;;;20.22;36.03;102213.59;4972728;28;20030;-83
2023/06/03 10:05:24;;;;;;;1.35;0.70;;;;;;;20.05;34.22;102213.25;4978857;28;20031;-82
2023/06/03 10:07:49;;;;;;;4.32;1.00;;;;;;;20.45;37.86;102205.34;4990200;28;20034;-82
2023/06/03 10:10:14;;;;;;;1.15;0.90;;;;;;;20.57;36.29;102211.75;4980872;28;20022;-83
2023/06/03 10:12:40;;;;;;;2.38;0.82;;;;;;;20.34;32.57;102213.09;4980876;28;20527;-83
2023/06/03 10:15:06;;;;;;;1.45;0.88;;;;;;;20.54;39.52;102218.28;4983012;28;20137;-83
2023/06/03 10:17:31;;;;;;;2.17;0.63;;;;;;;20.57;35.97;102217.47;4982701;28;20030;-83
2023/06/03 10:19:56;;;;;;;1.17;1.08;;;;;;;20.21;32.97;102217.63;4995215;28;20482;-83
2023/06/03 10:22:26;;;;;;;0.75;0.50;;;;;;;20.51;33.91;102225.59;4975763;28;20053;-83
2023/06/03 10:24:55;;;;;;;2.83;1.30;;;;;;;20.70;38.26;102218.63;4979349;28;20697;-84
2023/06/03 10:27:21;;;;;;;1.02;0.60;;;;;;;20.88;34.93;102222.16;4977276;28;20046;-84
2023/06/03 10:29:52;;;;;;;1.73;0.65;;;;;;;20.44;33.71;102212.22;4980679;28;20132;-85
2023/06/03 10:32:18;;;;;;;1.42;0.73;;;;;;;20.61;39.29;102212.59;4982580;28;20534;-84
2023/06/03 10:34:44;;;;;;;3.10;1.05;;;;;;;20.94;32.62;102224.56;4980116;28;20030;-84
2023/06/03 10:37:13;;;;;;;1.95;0.82;;;;;;;21.18;32.08;102211.38;4984038;28;20038;-85
2023/06/03 10:39:44;;;;;;;2.38;0.80;;;;;;;21.44;33.02;102221.31;4977781;28;20050;-84
2023/06/03 10:42:10;;;;;;;1.85;0.70;;;;;;;21.20;31.95;102209.72;4974586;28;20048;-85
2023/06/03 10:44:36;;;;;;;2.28;0.90;;;;;;;20.91;32.30;102215.66;4985095;28;20042;-85
2023/06/03 10:47:25;;;;;;;2.00;1.10;;;;;;;21.00;33.06;102220.88;4970065;28;20492;-82
2023/06/03 10:49:56;;;;;;;1.55;0.70;;;;;;;21.47;33.61;102211.94;4973179;28;20050;-83
2023/06/03 10:52:40;;;;;;;1.00;0.60;;;;;;;21.03;36.43;102222.06;4972918;28;20034;-82
2023/06/03 10:55:28;;;;;;;0.80;0.70;;;;;;;21.58;32.90;102218.34;4981009;28;20447;-82
2023/06/03 10:58:14;;;;;;;0.90;0.77;;;;;;;21.64;31.42;102222.34;4974850;28;20121;-82
2023/06/03 11:00:56;;;;;;;2.38;0.90;;;;;;;21.61;33.32;102217.50;4969886;28;21238;-83
2023/06/03 11:03:23;;;;;;;1.27;1.15;;;;;;;21.54;34.44;102205.38;4971976;28;20121;-82
2023/06/03 11:05:50;;;;;;;2.05;1.08;;;;;;;20.94;35.64;102213.19;4984668;28;20041;-82
2023/06/03 11:09:02;;;;;;;4.90;0.85;;;;;;;20.95;36.12;102209.09;4976617;28;20030;-83
2023/06/03 11:11:48;;;;;;;3.15;0.80;;;;;;;21.80;33.44;102209.56;4992431;28;20865;-83
2023/06/03 11:14:26;;;;;;;2.25;1.00;;;;;;;21.64;34.60;102210.94;4975648;28;20046;-83
2023/06/03 11:16:57;;;;;;;1.95;1.00;;;;;;;21.11;34.56;102212.25;4995190;28;20033;-82
2023/06/03 11:19:30;;;;;;;0.68;0.50;;;;;;;21.24;33.92;102204.78;4996429;28;20042;-82
2023/06/03 11:21:59;;;;;;;1.23;0.75;;;;;;;21.89;33.23;102209.88;4973232;28;20070;-82
2023/06/03 11:24:43;;;;;;;0.85;0.63;;;;;;;21.70;33.45;102202.75;4994323;28;20145;-86
2023/06/03 11:27:14;;;;;;;1.58;0.70;;;;;;;21.70;33.46;102214.97;4978853;28;20384;-84
2023/06/03 11:29:45;;;;;;;2.78;0.70;;;;;;;21.54;34.96;102208.22;4975914;28;20034;-85